Time;durP1;ratioP1;P1;durP2;ratioP2;P2;SDS_P1;SDS_P2;PMS_P1;PMS_P2;Temp;Humidity;BMP_temperature;BMP_pressure;BME280_temperature;BME280_humidity;BME280_pressure;Samples;Min_cycle;Max_cycle;Signal;HPM_P1;HPM_P2
2021/12/16 00:01:51;;;;;;;83.72;45.72;;;;;;;8.60;100.00;104178.69;10523187;28;20411;-59
2021/12/16 00:33:42;;;;;;;86.60;46.20;;;;;;;8.61;100.00;104149.09;10544010;28;20051;-59
2021/12/16 00:38:45;;;;;;;91.03;47.05;;;;;;;8.53;100.00;104136.00;10543797;28;20283;-58
2021/12/16 00:44:05;;;;;;;84.22;46.10;;;;;;;8.46;100.00;104131.63;10542790;28;20047;-59
2021/12/16 00:49:21;;;;;;;100.15;50.13;;;;;;;8.34;100.00;104121.09;10541983;28;20377;-58
2021/12/16 00:54:23;;;;;;;109.68;50.65;;;;;;;8.38;100.00;104128.91;10542203;28;20043;-59
2021/12/16 00:59:31;;;;;;;104.32;52.72;;;;;;;8.35;100.00;104121.09;10542560;28;20408;-60
2021/12/16 01:33:39;;;;;;;119.32;51.53;;;;;;;8.19;100.00;104151.44;10541732;28;20048;-60
2021/12/16 01:42:26;;;;;;;106.23;51.93;;;;;;;8.36;100.00;104164.59;10540464;28;20048;-60
2021/12/16 01:47:52;;;;;;;96.70;47.15;;;;;;;8.43;100.00;104183.81;10541324;28;20055;-58
2021/12/16 01:53:17;;;;;;;94.18;46.58;;;;;;;8.50;100.00;104182.97;10540249;28;20044;-59
2021/12/16 01:58:23;;;;;;;88.65;45.03;;;;;;;8.55;100.00;104175.19;10540856;28;20063;-58
2021/12/16 02:03:39;;;;;;;91.35;47.60;;;;;;;8.48;100.00;104165.56;10540109;28;20044;-58
2021/12/16 02:08:42;;;;;;;91.40;47.92;;;;;;;8.53;100.00;104190.84;10540278;28;20040;-59
2021/12/16 02:30:53;;;;;;;104.05;48.92;;;;;;;8.51;100.00;104238.72;10539982;28;20060;-59
2021/12/16 02:35:40;;;;;;;88.13;45.75;;;;;;;8.53;100.00;104232.63;10539516;28;20070;-58
2021/12/16 02:40:45;;;;;;;98.95;47.15;;;;;;;8.57;100.00;104243.09;10539378;28;20442;-59
2021/12/16 02:51:19;;;;;;;86.15;43.97;;;;;;;8.50;100.00;104248.28;10542779;28;20044;-58
2021/12/16 02:56:22;;;;;;;88.15;43.35;;;;;;;8.49;100.00;104235.19;10546942;28;20515;-58
2021/12/16 03:01:29;;;;;;;85.82;42.55;;;;;;;8.49;100.00;104233.50;10546824;28;20044;-60
2021/12/16 03:06:33;;;;;;;89.55;45.30;;;;;;;8.37;100.00;104243.78;10547531;28;20044;-60
2021/12/16 03:17:09;;;;;;;83.13;42.15;;;;;;;8.50;100.00;104234.34;10546525;28;20044;-59
2021/12/16 03:22:23;;;;;;;86.18;44.67;;;;;;;8.37;100.00;104230.75;10546002;28;20048;-59
2021/12/16 03:37:50;;;;;;;83.90;41.58;;;;;;;8.18;100.00;104227.13;10546095;28;20052;-60
2021/12/16 03:43:03;;;;;;;115.90;50.72;;;;;;;8.08;100.00;104223.56;10545261;28;20044;-59
2021/12/16 03:48:12;;;;;;;98.55;46.28;;;;;;;8.06;100.00;104227.06;10544497;28;20055;-59
2021/12/16 03:53:16;;;;;;;90.07;43.97;;;;;;;8.06;100.00;104225.31;10545086;28;20055;-59
2021/12/16 03:58:19;;;;;;;100.90;47.72;;;;;;;7.98;100.00;104232.19;10544614;28;20048;-61
2021/12/16 04:03:22;;;;;;;94.70;47.22;;;;;;;7.97;100.00;104240.91;10543066;28;20106;-58
2021/12/16 04:08:24;;;;;;;92.05;46.50;;;;;;;7.93;100.00;104260.84;10544442;28;20055;-58
2021/12/16 04:13:27;;;;;;;105.45;49.67;;;;;;;7.94;100.00;104233.91;10543878;28;20050;-59
2021/12/16 04:18:29;;;;;;;107.57;50.45;;;;;;;7.84;100.00;104219.03;10544131;28;20055;-59
2021/12/16 04:23:32;;;;;;;94.63;43.67;;;;;;;7.77;100.00;104214.63;10544320;28;20051;-58
2021/12/16 04:28:34;;;;;;;124.05;52.80;;;;;;;7.77;100.00;104215.50;10544216;28;20052;-59
2021/12/16 04:33:39;;;;;;;99.65;46.53;;;;;;;7.78;100.00;104225.09;10543284;28;20399;-60
2021/12/16 04:38:43;;;;;;;114.43;49.88;;;;;;;7.86;100.00;104240.78;10543742;28;20056;-59
2021/12/16 04:43:50;;;;;;;105.80;48.13;;;;;;;7.84;100.00;104228.59;10543342;28;20605;-60
2021/12/16 04:48:57;;;;;;;111.85;47.47;;;;;;;7.66;100.00;104248.41;10543284;28;20056;-58
2021/12/16 04:54:00;;;;;;;117.82;51.58;;;;;;;7.69;100.00;104230.19;10542372;28;20052;-59
2021/12/16 04:59:08;;;;;;;114.47;50.25;;;;;;;7.67;100.00;104234.53;10542197;28;20047;-58
2021/12/16 05:04:11;;;;;;;120.80;49.65;;;;;;;7.66;100.00;104250.16;10542270;28;20059;-58
2021/12/16 05:09:31;;;;;;;113.05;50.40;;;;;;;7.62;100.00;104252.75;10542460;28;20134;-59
2021/12/16 05:14:33;;;;;;;144.43;56.63;;;;;;;7.53;100.00;104250.03;10541208;28;20506;-60
2021/12/16 05:19:38;;;;;;;133.10;53.67;;;;;;;7.51;100.00;104258.69;10541572;28;20052;-59
2021/12/16 05:24:41;;;;;;;112.95;50.95;;;;;;;7.67;100.00;104291.91;10540066;28;20055;-58
2021/12/16 05:29:43;;;;;;;171.38;56.20;;;;;;;7.45;100.00;104306.44;10541074;28;20051;-59
2021/12/16 05:34:45;;;;;;;101.65;48.00;;;;;;;7.27;100.00;104327.06;10541072;28;20040;-58
2021/12/16 05:39:49;;;;;;;137.38;49.47;;;;;;;7.27;100.00;104372.25;10539608;28;20514;-59
2021/12/16 05:44:51;;;;;;;96.80;45.05;;;;;;;7.36;100.00;104380.22;10540762;28;20047;-60
2021/12/16 05:49:53;;;;;;;145.18;48.03;;;;;;;7.46;100.00;104394.22;10540889;28;20059;-59
2021/12/16 05:54:56;;;;;;;109.68;44.00;;;;;;;7.65;100.00;104431.88;10540239;28;20044;-58
2021/12/16 05:59:58;;;;;;;105.22;44.78;;;;;;;7.14;100.00;104407.69;10540290;28;20048;-60
2021/12/16 06:05:01;;;;;;;112.53;45.13;;;;;;;7.34;100.00;104447.06;10539927;28;20063;-58
2021/12/16 06:10:05;;;;;;;107.13;44.78;;;;;;;7.54;100.00;104481.25;10540177;28;20051;-58
2021/12/16 06:15:22;;;;;;;96.45;42.80;;;;;;;7.62;100.00;104503.09;10539815;28;20044;-59
2021/12/16 06:31:07;;;;;;;88.97;39.42;;;;;;;7.52;100.00;104552.50;10548071;28;20511;-59
2021/12/16 06:36:09;;;;;;;82.13;41.10;;;;;;;7.35;100.00;104586.13;10547984;28;20040;-59
2021/12/16 06:41:12;;;;;;;139.43;49.13;;;;;;;7.59;100.00;104573.47;10547602;28;20492;-59
2021/12/16 06:46:18;;;;;;;131.38;45.03;;;;;;;7.72;100.00;104600.63;10546480;28;20488;-60
2021/12/16 06:51:33;;;;;;;145.27;49.35;;;;;;;7.60;100.00;104600.47;10548317;28;20058;-60
2021/12/16 06:57:33;;;;;;;206.23;59.47;;;;;;;7.71;100.00;104621.47;10547513;28;20056;-58
2021/12/16 07:07:10;;;;;;;103.22;45.08;;;;;;;7.60;100.00;104650.00;10546809;28;20048;-59
2021/12/16 07:12:12;;;;;;;210.38;57.47;;;;;;;7.63;100.00;104683.94;10547013;28;20047;-60
2021/12/16 07:17:16;;;;;;;115.85;47.78;;;;;;;7.60;100.00;104713.47;10546879;28;20051;-60
2021/12/16 07:22:19;;;;;;;175.85;54.85;;;;;;;7.80;100.00;104755.56;10546175;28;20048;-59
2021/12/16 07:27:21;;;;;;;164.88;51.28;;;;;;;7.80;100.00;104757.28;10546335;28;20055;-59
2021/12/16 07:32:23;;;;;;;216.55;56.13;;;;;;;7.85;100.00;104791.28;10545866;28;20040;-59
2021/12/16 07:37:26;;;;;;;131.18;48.88;;;;;;;7.85;100.00;104773.91;10545239;28;20476;-61
2021/12/16 07:42:38;;;;;;;94.80;43.50;;;;;;;7.76;100.00;104818.97;10545583;28;20101;-61
2021/12/16 07:47:41;;;;;;;206.15;54.35;;;;;;;7.66;100.00;104839.63;10545115;28;20478;-58
2021/12/16 07:52:44;;;;;;;208.30;53.15;;;;;;;7.70;100.00;104844.94;10544997;28;20044;-60
2021/12/16 07:57:47;;;;;;;167.57;51.92;;;;;;;7.58;100.00;104869.06;10544880;28;20400;-60
2021/12/16 08:02:49;;;;;;;157.93;48.05;;;;;;;7.73;100.00;104878.94;10544544;28;20055;-58
2021/12/16 08:07:53;;;;;;;257.52;58.35;;;;;;;7.86;100.00;104905.25;10544037;28;20404;-60
2021/12/16 08:12:55;;;;;;;256.65;57.83;;;;;;;7.99;100.00;104884.63;10544485;28;20067;-58
2021/12/16 08:17:58;;;;;;;111.78;44.13;;;;;;;7.85;100.00;104885.22;10544394;28;20051;-59
2021/12/16 08:23:00;;;;;;;180.57;47.47;;;;;;;7.85;100.00;104908.69;10544801;28;20058;-59
2021/12/16 08:28:05;;;;;;;133.02;48.15;;;;;;;7.95;100.00;104903.72;10544161;28;20109;-60
2021/12/16 08:33:10;;;;;;;197.43;49.25;;;;;;;7.99;100.00;104909.88;10543255;28;20044;-60
2021/12/16 08:38:15;;;;;;;184.88;50.22;;;;;;;7.91;100.00;104938.41;10543140;28;20404;-59
2021/12/16 08:43:19;;;;;;;271.20;57.95;;;;;;;7.99;100.00;104936.84;10542958;28;20052;-60
2021/12/16 08:48:21;;;;;;;338.60;68.28;;;;;;;7.88;100.00;104917.47;10542301;28;20068;-60
2021/12/16 08:53:24;;;;;;;108.70;38.55;;;;;;;7.93;100.00;104952.38;10542805;28;20048;-60
2021/12/16 08:58:27;;;;;;;130.20;46.30;;;;;;;8.10;100.00;104924.00;10541839;28;20044;-58
2021/12/16 09:03:30;;;;;;;370.08;74.70;;;;;;;7.91;100.00;104904.47;10542715;28;20047;-59
2021/12/16 09:08:33;;;;;;;145.65;51.40;;;;;;;7.88;100.00;104893.97;10542034;28;20048;-60
2021/12/16 09:13:39;;;;;;;146.27;50.15;;;;;;;8.38;100.00;104914.06;10541977;28;20048;-61
2021/12/16 09:18:43;;;;;;;143.77;49.78;;;;;;;8.06;100.00;104895.22;10542332;28;20044;-60
2021/12/16 09:23:47;;;;;;;129.15;48.92;;;;;;;7.98;100.00;104905.47;10541714;28;20040;-60
2021/12/16 09:28:50;;;;;;;253.43;56.28;;;;;;;8.02;100.00;104901.19;10541095;28;20127;-60
2021/12/16 09:33:53;;;;;;;109.47;38.95;;;;;;;8.22;100.00;104905.09;10540874;28;20396;-60
2021/12/16 09:38:57;;;;;;;109.80;43.03;;;;;;;8.08;100.00;104896.97;10540146;28;20043;-59
2021/12/16 09:44:00;;;;;;;93.47;40.60;;;;;;;8.08;100.00;104881.31;10540625;28;20399;-62
2021/12/16 09:49:03;;;;;;;104.47;41.13;;;;;;;8.16;100.00;104895.38;10540309;28;20052;-60
2021/12/16 09:54:08;;;;;;;134.77;44.97;;;;;;;8.30;100.00;104902.59;10540657;28;20476;-59
2021/12/16 09:59:13;;;;;;;113.28;42.53;;;;;;;8.17;100.00;104886.72;10540126;28;20052;-60
2021/12/16 10:04:20;;;;;;;132.00;49.15;;;;;;;8.17;100.00;104898.91;10540835;28;20056;-58
2021/12/16 10:09:22;;;;;;;208.63;55.22;;;;;;;8.36;100.00;104900.09;10540147;28;20460;-58
2021/12/16 10:19:35;;;;;;;136.57;46.03;;;;;;;8.42;100.00;104905.41;10539774;28;20055;-59
2021/12/16 10:24:37;;;;;;;125.65;45.08;;;;;;;8.54;100.00;104903.06;10540095;28;20048;-58
2021/12/16 10:30:05;;;;;;;151.80;46.22;;;;;;;8.60;100.00;104909.25;10539625;28;20044;-59
2021/12/16 10:35:19;;;;;;;120.85;43.40;;;;;;;8.40;100.00;104891.44;10537134;28;20052;-59
2021/12/16 10:40:31;;;;;;;223.02;54.70;;;;;;;8.31;100.00;104905.22;10539219;28;20051;-59
2021/12/16 10:45:37;;;;;;;173.15;49.97;;;;;;;8.48;100.00;104915.13;10539258;28;20052;-59
2021/12/16 10:51:03;;;;;;;109.15;41.03;;;;;;;8.33;100.00;104911.34;10539127;28;20051;-59
2021/12/16 10:56:07;;;;;;;136.70;46.10;;;;;;;8.43;100.00;104894.16;10538758;28;20389;-59
2021/12/16 11:01:34;;;;;;;92.70;39.00;;;;;;;8.41;100.00;104898.44;10538905;28;20054;-59
2021/12/16 11:06:43;;;;;;;89.78;36.45;;;;;;;8.62;100.00;104900.56;10537920;28;20069;-59
2021/12/16 11:11:45;;;;;;;182.10;48.83;;;;;;;8.45;100.00;104873.28;10541643;28;20044;-58
2021/12/16 11:16:57;;;;;;;89.15;39.95;;;;;;;8.81;100.00;104893.91;10546980;28;20051;-60
2021/12/16 11:22:04;;;;;;;110.95;40.92;;;;;;;8.83;100.00;104893.94;10546292;28;20058;-59
2021/12/16 11:27:29;;;;;;;68.35;30.88;;;;;;;8.82;100.00;104881.72;10546189;28;20051;-58
2021/12/16 11:32:46;;;;;;;80.30;33.58;;;;;;;8.53;100.00;104871.69;10545920;28;20149;-58
2021/12/16 11:37:49;;;;;;;56.28;27.08;;;;;;;8.77;100.00;104870.31;10545883;28;20059;-59
2021/12/16 11:43:05;;;;;;;70.07;31.33;;;;;;;8.53;100.00;104862.09;10545456;28;20052;-60
2021/12/16 11:48:08;;;;;;;53.30;30.02;;;;;;;8.72;100.00;104862.41;10545173;28;20526;-58
2021/12/16 11:53:11;;;;;;;68.40;32.83;;;;;;;8.63;100.00;104865.75;10543672;28;20047;-58
2021/12/16 11:58:13;;;;;;;66.20;33.10;;;;;;;8.90;100.00;104872.25;10543608;28;20048;-58
2021/12/16 12:03:16;;;;;;;60.85;31.33;;;;;;;9.04;100.00;104878.56;10544456;28;20502;-59
2021/12/16 12:08:23;;;;;;;69.10;31.42;;;;;;;8.82;100.00;104853.84;10545268;28;20101;-60
2021/12/16 12:13:29;;;;;;;53.00;26.92;;;;;;;8.47;100.00;104846.38;10544222;28;20044;-58
2021/12/16 12:18:50;;;;;;;54.17;29.00;;;;;;;8.89;100.00;104863.56;10544680;28;20062;-58
2021/12/16 12:23:54;;;;;;;50.78;28.10;;;;;;;9.25;100.00;104898.91;10542862;28;20044;-57
2021/12/16 12:29:10;;;;;;;55.28;29.17;;;;;;;9.25;100.00;104880.59;10543654;28;20051;-59
2021/12/16 12:34:13;;;;;;;52.33;29.65;;;;;;;9.05;100.00;104875.09;10542270;28;20521;-61
2021/12/16 12:39:18;;;;;;;51.67;27.20;;;;;;;8.96;100.00;104869.75;10543862;28;20094;-59
2021/12/16 12:44:21;;;;;;;52.05;26.63;;;;;;;8.84;100.00;104861.69;10543539;28;20504;-57
2021/12/16 12:49:26;;;;;;;72.25;33.63;;;;;;;8.58;100.00;104843.03;10543362;28;20048;-60
2021/12/16 12:54:31;;;;;;;54.38;28.85;;;;;;;8.70;100.00;104861.50;10542937;28;20048;-58
2021/12/16 12:59:37;;;;;;;52.28;28.83;;;;;;;8.92;100.00;104862.69;10542918;28;20051;-58
2021/12/16 13:04:59;;;;;;;72.78;33.70;;;;;;;8.82;100.00;104853.84;10542056;28;20500;-59
2021/12/16 13:10:15;;;;;;;63.30;30.42;;;;;;;8.86;100.00;104880.91;10542036;28;20059;-60
2021/12/16 13:31:47;;;;;;;56.40;31.23;;;;;;;9.00;100.00;104879.38;10541420;28;20044;-60
2021/12/16 13:36:50;;;;;;;52.38;31.05;;;;;;;8.97;100.00;104873.22;10541061;28;20081;-59
2021/12/16 13:42:12;;;;;;;59.05;30.98;;;;;;;9.07;100.00;104878.59;10541667;28;20070;-59
2021/12/16 14:04:14;;;;;;;66.95;33.45;;;;;;;8.97;100.00;104857.53;10539978;28;20419;-60
2021/12/16 14:09:15;;;;;;;;;;;;;;;8.96;100.00;104856.69;10540111;28;20044;-59
2021/12/16 14:15:07;;;;;;;70.35;33.78;;;;;;;8.92;100.00;104874.03;10539875;28;19920;-59
2021/12/16 14:47:04;;;;;;;124.85;41.33;;;;;;;8.74;100.00;104879.88;10542469;28;20135;-58
2021/12/16 14:52:15;;;;;;;76.28;36.38;;;;;;;8.79;100.00;104859.00;10547820;28;20055;-60
2021/12/16 14:57:26;;;;;;;108.30;43.22;;;;;;;8.61;100.00;104856.13;10547511;28;20059;-58
2021/12/16 15:02:32;;;;;;;94.65;41.20;;;;;;;8.57;100.00;104851.72;10547414;28;20044;-59
2021/12/16 15:07:35;;;;;;;77.82;38.28;;;;;;;8.53;100.00;104845.56;10547586;28;20050;-60
2021/12/16 15:12:46;;;;;;;107.30;41.75;;;;;;;8.59;100.00;104869.19;10546770;28;20040;-58
2021/12/16 15:40:11;;;;;;;173.93;48.05;;;;;;;8.26;100.00;104877.28;10546095;28;20048;-60
2021/12/16 15:45:22;;;;;;;165.45;47.40;;;;;;;8.30;100.00;104877.34;10545471;28;20047;-58
2021/12/16 15:50:33;;;;;;;94.30;37.45;;;;;;;8.42;100.00;104881.91;10545564;28;20504;-59
2021/12/16 15:55:46;;;;;;;114.13;39.67;;;;;;;8.27;100.00;104886.88;10545574;28;20044;-58
2021/12/16 16:00:57;;;;;;;79.28;37.65;;;;;;;8.40;100.00;104878.41;10544596;28;20051;-57
2021/12/16 16:06:02;;;;;;;116.65;41.72;;;;;;;8.29;100.00;104873.00;10545198;28;20052;-59
2021/12/16 16:11:09;;;;;;;106.47;41.72;;;;;;;8.05;100.00;104869.94;10544448;28;20044;-59
2021/12/16 16:16:14;;;;;;;92.20;38.83;;;;;;;8.27;100.00;104887.78;10544142;28;20048;-60
2021/12/16 16:21:21;;;;;;;163.10;47.65;;;;;;;8.08;100.00;104888.28;10544239;28;20048;-60
2021/12/16 16:26:24;;;;;;;353.77;56.75;;;;;;;8.12;100.00;104903.13;10543905;28;20445;-60
2021/12/16 16:31:29;;;;;;;142.30;39.42;;;;;;;8.13;100.00;104890.09;10543441;28;20044;-60
2021/12/16 16:36:32;;;;;;;245.43;47.33;;;;;;;8.21;100.00;104897.22;10543474;28;20407;-58
2021/12/16 16:41:40;;;;;;;99.47;34.15;;;;;;;8.24;100.00;104902.47;10543246;28;20048;-60
2021/12/16 16:46:55;;;;;;;91.40;37.70;;;;;;;8.11;100.00;104899.66;10542496;28;20088;-61
2021/12/16 16:52:04;;;;;;;122.55;40.08;;;;;;;8.21;100.00;104905.06;10542581;28;20048;-60
2021/12/16 16:57:12;;;;;;;171.77;44.97;;;;;;;7.96;100.00;104899.38;10543286;28;20047;-59
2021/12/16 17:02:30;;;;;;;88.07;32.88;;;;;;;8.07;100.00;104897.84;10542853;28;20044;-59
2021/12/16 17:08:04;;;;;;;188.02;47.63;;;;;;;7.93;100.00;104909.75;10542292;28;20052;-60
2021/12/16 17:13:25;;;;;;;413.70;57.42;;;;;;;7.86;100.00;104887.84;10541837;28;20051;-60
2021/12/16 17:18:36;;;;;;;92.68;33.90;;;;;;;8.05;100.00;104909.09;10541823;28;20055;-59
2021/12/16 17:23:39;;;;;;;305.55;49.85;;;;;;;8.07;100.00;104917.81;10542015;28;20051;-59
2021/12/16 17:28:41;;;;;;;91.15;34.63;;;;;;;7.81;100.00;104934.72;10541049;28;20044;-59
2021/12/16 17:33:46;;;;;;;145.38;35.42;;;;;;;7.81;100.00;104924.28;10541098;28;20048;-61
2021/12/16 17:38:48;;;;;;;98.72;30.58;;;;;;;7.74;100.00;104927.63;10541014;28;20415;-59
2021/12/16 17:43:51;;;;;;;156.85;37.97;;;;;;;7.69;100.00;104913.63;10541250;28;20055;-60
2021/12/16 17:48:53;;;;;;;198.85;40.22;;;;;;;7.81;100.00;104928.63;10540665;28;20059;-60
2021/12/16 17:53:59;;;;;;;261.67;46.92;;;;;;;7.69;100.00;104928.41;10540245;28;20403;-60
2021/12/16 17:59:06;;;;;;;90.60;32.55;;;;;;;7.84;100.00;104952.19;10540884;28;20044;-59
2021/12/16 18:04:22;;;;;;;85.70;30.88;;;;;;;7.66;100.00;104938.75;10540136;28;20480;-61
2021/12/16 18:09:32;;;;;;;83.63;33.92;;;;;;;7.70;100.00;104946.69;10539899;28;20506;-59
2021/12/16 18:14:43;;;;;;;89.97;34.10;;;;;;;7.50;100.00;104950.56;10539903;28;20048;-60
2021/12/16 18:19:52;;;;;;;71.13;32.03;;;;;;;7.51;100.00;104932.34;10538360;28;20055;-60
2021/12/16 18:25:29;;;;;;;73.47;30.95;;;;;;;7.71;100.00;104944.97;10539370;28;20075;-59
2021/12/16 18:30:36;;;;;;;101.38;34.03;;;;;;;7.65;100.00;104956.16;10534469;28;20052;-59
2021/12/16 18:35:51;;;;;;;92.72;33.22;;;;;;;7.75;100.00;104954.59;10538597;28;20044;-61
2021/12/16 18:40:55;;;;;;;76.13;33.15;;;;;;;7.95;100.00;104958.53;10539772;28;20055;-58
2021/12/16 18:46:02;;;;;;;159.85;41.80;;;;;;;7.68;100.00;104960.53;10539512;28;20117;-59
2021/12/16 18:56:15;;;;;;;128.60;40.30;;;;;;;7.48;100.00;104947.97;10538879;28;20480;-59
2021/12/16 19:01:28;;;;;;;84.70;35.28;;;;;;;7.68;100.00;104971.84;10538286;28;20052;-59
2021/12/16 19:06:34;;;;;;;61.30;31.23;;;;;;;7.76;100.00;104953.75;10539090;28;20044;-61
2021/12/16 19:11:44;;;;;;;96.85;39.40;;;;;;;7.69;100.00;104942.31;10539364;28;20052;-59
2021/12/16 19:16:47;;;;;;;100.75;39.03;;;;;;;7.55;100.00;104920.28;10538857;28;20067;-58
2021/12/16 19:21:50;;;;;;;97.25;43.17;;;;;;;7.72;100.00;104941.50;10538942;28;20052;-59
2021/12/16 19:26:53;;;;;;;127.88;55.17;;;;;;;7.72;100.00;104946.72;10538442;28;20048;-60
2021/12/16 19:31:55;;;;;;;103.75;44.88;;;;;;;7.65;100.00;104944.81;10538215;28;20487;-59
2021/12/16 19:36:58;;;;;;;71.13;33.50;;;;;;;7.87;100.00;104956.56;10546102;28;20048;-58
2021/12/16 19:42:01;;;;;;;112.93;40.78;;;;;;;7.89;100.00;104949.69;10545968;28;20048;-58
2021/12/16 19:47:04;;;;;;;127.68;43.75;;;;;;;7.80;100.00;104958.19;10545220;28;20048;-58
2021/12/16 19:52:06;;;;;;;101.03;41.92;;;;;;;7.71;100.00;104955.38;10545376;28;20044;-59
2021/12/16 19:57:11;;;;;;;79.25;35.33;;;;;;;7.70;100.00;104966.66;10545597;28;20057;-57
2021/12/16 20:02:14;;;;;;;71.95;35.15;;;;;;;7.72;100.00;104978.03;10544624;28;20055;-58
2021/12/16 20:07:20;;;;;;;80.35;34.30;;;;;;;7.87;100.00;104988.78;10545211;28;20051;-59
2021/12/16 20:12:30;;;;;;;81.22;35.90;;;;;;;7.67;100.00;105006.63;10544572;28;20048;-59
2021/12/16 20:17:33;;;;;;;70.00;34.33;;;;;;;7.67;100.00;104990.97;10544913;28;20131;-59
2021/12/16 20:22:35;;;;;;;94.18;36.67;;;;;;;7.74;100.00;104989.38;10543806;28;20044;-59
2021/12/16 20:27:45;;;;;;;75.95;35.38;;;;;;;7.74;100.00;104981.56;10543860;28;20396;-59
2021/12/16 20:33:05;;;;;;;105.78;38.47;;;;;;;7.70;100.00;104985.81;10543554;28;20472;-59
2021/12/16 20:38:09;;;;;;;156.25;46.22;;;;;;;7.75;100.00;104980.69;10543418;28;20501;-59
2021/12/16 20:43:15;;;;;;;99.45;36.70;;;;;;;7.69;100.00;104991.88;10542348;28;20059;-60
2021/12/16 20:48:40;;;;;;;124.43;40.70;;;;;;;7.86;100.00;104997.47;10543140;28;20136;-59
2021/12/16 20:53:43;;;;;;;100.85;37.70;;;;;;;7.86;100.00;105009.63;10542866;28;20044;-59
2021/12/16 20:58:52;;;;;;;93.35;35.85;;;;;;;7.89;100.00;105017.53;10542824;28;20070;-59
2021/12/16 21:04:02;;;;;;;110.15;38.58;;;;;;;7.89;100.00;104989.69;10542118;28;20487;-59
2021/12/16 21:09:06;;;;;;;165.15;43.63;;;;;;;7.85;100.00;104995.72;10541193;28;20055;-60
2021/12/16 21:14:09;;;;;;;206.48;50.22;;;;;;;7.65;100.00;104991.78;10540401;28;20055;-61
2021/12/16 21:19:12;;;;;;;234.32;51.58;;;;;;;7.68;100.00;104982.28;10540655;28;20381;-60
2021/12/16 21:24:14;;;;;;;299.13;55.38;;;;;;;7.65;100.00;104982.25;10541638;28;20087;-59
2021/12/16 21:29:17;;;;;;;183.05;49.28;;;;;;;7.82;100.00;104998.25;10541951;28;20046;-60
2021/12/16 21:34:31;;;;;;;206.32;45.92;;;;;;;7.76;100.00;104998.09;10541110;28;20048;-59
2021/12/16 21:39:33;;;;;;;181.07;43.45;;;;;;;7.80;100.00;104993.00;10541158;28;20051;-58
2021/12/16 21:44:36;;;;;;;156.85;40.00;;;;;;;8.05;100.00;105011.75;10540777;28;20055;-59
2021/12/16 21:49:57;;;;;;;162.90;40.03;;;;;;;7.96;100.00;105011.59;10541228;28;20393;-59
2021/12/16 21:54:59;;;;;;;210.73;40.97;;;;;;;7.80;100.00;104990.38;10540142;28;20515;-59
2021/12/16 22:00:05;;;;;;;156.00;38.70;;;;;;;7.69;100.00;104986.66;10540476;28;20047;-58
2021/12/16 22:05:10;;;;;;;179.57;41.05;;;;;;;7.72;100.00;104978.91;10539672;28;20406;-59
2021/12/16 22:10:13;;;;;;;167.90;38.13;;;;;;;7.69;100.00;104978.84;10540099;28;20499;-58
2021/12/16 22:15:20;;;;;;;149.45;39.22;;;;;;;7.53;100.00;104974.13;10540564;28;20051;-58
2021/12/16 22:20:24;;;;;;;146.98;36.30;;;;;;;7.79;100.00;104998.19;10539983;28;20044;-59
2021/12/16 22:25:27;;;;;;;123.82;33.17;;;;;;;7.46;100.00;104956.59;10539641;28;20048;-60
2021/12/16 22:30:29;;;;;;;174.27;35.60;;;;;;;7.54;100.00;104970.69;10538434;28;20059;-59
2021/12/16 22:35:32;;;;;;;107.90;31.67;;;;;;;7.49;100.00;104975.78;10539652;28;20072;-60
2021/12/16 22:40:39;;;;;;;115.22;29.85;;;;;;;7.56;100.00;104976.81;10539330;28;20056;-58
2021/12/16 22:45:42;;;;;;;96.43;30.00;;;;;;;7.74;100.00;104986.75;10539582;28;20070;-60
2021/12/16 22:50:44;;;;;;;99.65;30.73;;;;;;;7.47;100.00;104982.69;10539508;28;20056;-60
2021/12/16 22:55:47;;;;;;;95.30;28.75;;;;;;;7.58;100.00;104988.13;10539048;28;20056;-60
2021/12/16 23:00:55;;;;;;;85.22;27.80;;;;;;;7.62;100.00;104982.16;10539011;28;20075;-59
2021/12/16 23:05:58;;;;;;;95.68;30.23;;;;;;;7.48;100.00;104979.25;10537973;28;20056;-58
2021/12/16 23:11:03;;;;;;;132.23;32.97;;;;;;;7.39;100.00;104977.28;10546737;28;20048;-61
2021/12/16 23:26:34;;;;;;;139.82;37.10;;;;;;;7.36;100.00;104972.03;10546493;28;20039;-59
2021/12/16 23:31:36;;;;;;;107.63;32.20;;;;;;;7.46;100.00;104982.66;10545834;28;20044;-59
2021/12/16 23:36:39;;;;;;;132.65;35.08;;;;;;;7.27;100.00;104956.16;10546392;28;20044;-58
2021/12/16 23:57:16;;;;;;;137.48;36.08;;;;;;;7.43;100.00;104960.00;10544122;28;20492;-59
